sensor_id;sensor_type;location;lat;lon;timestamp;temperature;humidity
18426;DHT22;9340;48.756;9.226;2023-04-15T00:00:07;3.80;99.90
18426;DHT22;9340;48.756;9.226;2023-04-15T00:02:34;3.80;99.90
18426;DHT22;9340;48.756;9.226;2023-04-15T00:05:03;3.80;99.90
18426;DHT22;9340;48.756;9.226;2023-04-15T00:07:30;3.70;99.90
18426;DHT22;9340;48.756;9.226;2023-04-15T00:09:57;3.80;99.90
18426;DHT22;9340;48.756;9.226;2023-04-15T00:12:24;3.70;99.90
18426;DHT22;9340;48.756;9.226;2023-04-15T00:14:51;3.70;99.90
18426;DHT22;9340;48.756;9.226;2023-04-15T00:17:18;3.70;99.90
18426;DHT22;9340;48.756;9.226;2023-04-15T00:19:44;3.60;99.90
18426;DHT22;9340;48.756;9.226;2023-04-15T00:22:13;3.60;99.90
18426;DHT22;9340;48.756;9.226;2023-04-15T00:24:40;3.60;99.90
18426;DHT22;9340;48.756;9.226;2023-04-15T00:27:07;3.60;99.90
18426;DHT22;9340;48.756;9.226;2023-04-15T00:29:34;3.70;99.90
18426;DHT22;9340;48.756;9.226;2023-04-15T00:32:01;3.70;99.90
18426;DHT22;9340;48.756;9.226;2023-04-15T00:34:28;3.70;99.90
18426;DHT22;9340;48.756;9.226;2023-04-15T00:36:54;3.70;99.90
18426;DHT22;9340;48.756;9.226;2023-04-15T00:39:23;3.70;99.90
18426;DHT22;9340;48.756;9.226;2023-04-15T00:41:49;3.60;99.90
18426;DHT22;9340;48.756;9.226;2023-04-15T00:44:17;3.60;99.90
18426;DHT22;9340;48.756;9.226;2023-04-15T00:46:44;3.70;99.90
18426;DHT22;9340;48.756;9.226;2023-04-15T00:49:12;3.60;99.90
18426;DHT22;9340;48.756;9.226;2023-04-15T00:51:39;3.50;99.90
18426;DHT22;9340;48.756;9.226;2023-04-15T00:54:05;3.40;99.90
18426;DHT22;9340;48.756;9.226;2023-04-15T00:56:35;3.40;99.90
18426;DHT22;9340;48.756;9.226;2023-04-15T00:59:05;3.30;99.90
18426;DHT22;9340;48.756;9.226;2023-04-15T01:01:33;3.30;99.90
18426;DHT22;9340;48.756;9.226;2023-04-15T01:04:01;3.20;99.90
18426;DHT22;9340;48.756;9.226;2023-04-15T01:06:28;3.20;99.90
18426;DHT22;9340;48.756;9.226;2023-04-15T01:08:57;3.10;99.90
18426;DHT22;9340;48.756;9.226;2023-04-15T01:11:24;3.10;99.90
18426;DHT22;9340;48.756;9.226;2023-04-15T01:13:52;3.20;99.90
18426;DHT22;9340;48.756;9.226;2023-04-15T01:16:21;3.20;99.90
18426;DHT22;9340;48.756;9.226;2023-04-15T01:18:48;3.20;99.90
18426;DHT22;9340;48.756;9.226;2023-04-15T01:21:14;3.20;99.90
18426;DHT22;9340;48.756;9.226;2023-04-15T01:23:43;3.10;99.90
18426;DHT22;9340;48.756;9.226;2023-04-15T01:26:13;3.10;99.90
18426;DHT22;9340;48.756;9.226;2023-04-15T01:28:41;3.00;99.90
18426;DHT22;9340;48.756;9.226;2023-04-15T01:31:09;2.90;99.90
18426;DHT22;9340;48.756;9.226;2023-04-15T01:33:38;2.90;99.90
18426;DHT22;9340;48.756;9.226;2023-04-15T01:36:06;2.90;99.90
18426;DHT22;9340;48.756;9.226;2023-04-15T01:38:34;3.00;99.90
18426;DHT22;9340;48.756;9.226;2023-04-15T01:41:02;2.90;99.90
18426;DHT22;9340;48.756;9.226;2023-04-15T01:43:30;2.90;99.90
18426;DHT22;9340;48.756;9.226;2023-04-15T01:45:57;2.90;99.90
18426;DHT22;9340;48.756;9.226;2023-04-15T01:48:24;2.80;99.90
18426;DHT22;9340;48.756;9.226;2023-04-15T01:50:53;2.80;99.90
18426;DHT22;9340;48.756;9.226;2023-04-15T01:53:22;2.80;99.90
18426;DHT22;9340;48.756;9.226;2023-04-15T01:55:48;2.80;99.90
18426;DHT22;9340;48.756;9.226;2023-04-15T01:58:15;2.70;99.90
18426;DHT22;9340;48.756;9.226;2023-04-15T02:00:44;2.70;99.90
18426;DHT22;9340;48.756;9.226;2023-04-15T02:03:10;2.70;99.90
18426;DHT22;9340;48.756;9.226;2023-04-15T02:05:37;2.70;99.90
18426;DHT22;9340;48.756;9.226;2023-04-15T02:08:04;2.70;99.90
18426;DHT22;9340;48.756;9.226;2023-04-15T02:10:30;2.60;99.90
18426;DHT22;9340;48.756;9.226;2023-04-15T02:12:57;2.60;99.90
18426;DHT22;9340;48.756;9.226;2023-04-15T02:15:24;2.60;99.90
18426;DHT22;9340;48.756;9.226;2023-04-15T02:17:52;2.50;99.90
18426;DHT22;9340;48.756;9.226;2023-04-15T02:20:19;2.50;99.90
18426;DHT22;9340;48.756;9.226;2023-04-15T02:22:47;2.50;99.90
18426;DHT22;9340;48.756;9.226;2023-04-15T02:25:14;2.50;99.90
18426;DHT22;9340;48.756;9.226;2023-04-15T02:27:42;2.50;99.90
18426;DHT22;9340;48.756;9.226;2023-04-15T02:30:09;2.60;99.90
18426;DHT22;9340;48.756;9.226;2023-04-15T02:32:36;2.60;99.90
18426;DHT22;9340;48.756;9.226;2023-04-15T02:35:05;2.60;99.90
18426;DHT22;9340;48.756;9.226;2023-04-15T02:37:35;2.50;99.90
18426;DHT22;9340;48.756;9.226;2023-04-15T02:40:07;2.60;99.90
18426;DHT22;9340;48.756;9.226;2023-04-15T02:42:33;2.50;99.90
18426;DHT22;9340;48.756;9.226;2023-04-15T02:45:00;2.40;99.90
18426;DHT22;9340;48.756;9.226;2023-04-15T02:47:27;2.40;99.90
18426;DHT22;9340;48.756;9.226;2023-04-15T02:49:54;2.50;99.90
18426;DHT22;9340;48.756;9.226;2023-04-15T02:52:24;2.50;99.90
18426;DHT22;9340;48.756;9.226;2023-04-15T02:54:51;2.50;99.90
18426;DHT22;9340;48.756;9.226;2023-04-15T02:57:22;2.40;99.90
18426;DHT22;9340;48.756;9.226;2023-04-15T02:59:48;2.40;99.90
18426;DHT22;9340;48.756;9.226;2023-04-15T03:02:15;2.30;99.90
18426;DHT22;9340;48.756;9.226;2023-04-15T03:04:41;2.30;99.90
18426;DHT22;9340;48.756;9.226;2023-04-15T03:07:08;2.30;99.90
18426;DHT22;9340;48.756;9.226;2023-04-15T03:09:36;2.40;99.90
18426;DHT22;9340;48.756;9.226;2023-04-15T03:12:04;2.40;99.90
18426;DHT22;9340;48.756;9.226;2023-04-15T03:14:31;2.30;99.90
18426;DHT22;9340;48.756;9.226;2023-04-15T03:16:58;2.20;99.90
18426;DHT22;9340;48.756;9.226;2023-04-15T03:19:25;2.30;99.90
18426;DHT22;9340;48.756;9.226;2023-04-15T03:21:52;2.40;99.90
18426;DHT22;9340;48.756;9.226;2023-04-15T03:24:19;2.30;99.90
18426;DHT22;9340;48.756;9.226;2023-04-15T03:26:47;2.30;99.90
18426;DHT22;9340;48.756;9.226;2023-04-15T03:29:13;2.30;99.90
18426;DHT22;9340;48.756;9.226;2023-04-15T03:31:40;2.40;99.90
18426;DHT22;9340;48.756;9.226;2023-04-15T03:34:07;2.40;99.90
18426;DHT22;9340;48.756;9.226;2023-04-15T03:36:33;2.50;99.90
18426;DHT22;9340;48.756;9.226;2023-04-15T03:39:00;2.50;99.90
18426;DHT22;9340;48.756;9.226;2023-04-15T03:41:27;2.50;99.90
18426;DHT22;9340;48.756;9.226;2023-04-15T03:43:55;2.60;99.90
18426;DHT22;9340;48.756;9.226;2023-04-15T03:46:22;2.50;99.90
18426;DHT22;9340;48.756;9.226;2023-04-15T03:48:49;2.50;99.90
18426;DHT22;9340;48.756;9.226;2023-04-15T03:51:15;2.50;99.90
18426;DHT22;9340;48.756;9.226;2023-04-15T03:53:42;2.40;99.90
18426;DHT22;9340;48.756;9.226;2023-04-15T03:56:09;2.40;99.90
18426;DHT22;9340;48.756;9.226;2023-04-15T03:58:35;2.40;99.90
18426;DHT22;9340;48.756;9.226;2023-04-15T04:01:03;2.30;99.90
18426;DHT22;9340;48.756;9.226;2023-04-15T04:03:30;2.20;99.90
18426;DHT22;9340;48.756;9.226;2023-04-15T04:05:57;2.20;99.90
18426;DHT22;9340;48.756;9.226;2023-04-15T04:08:24;2.20;99.90
18426;DHT22;9340;48.756;9.226;2023-04-15T04:10:51;2.10;99.90
18426;DHT22;9340;48.756;9.226;2023-04-15T04:13:18;2.20;99.90
18426;DHT22;9340;48.756;9.226;2023-04-15T04:15:45;2.10;99.90
18426;DHT22;9340;48.756;9.226;2023-04-15T04:18:13;2.10;99.90
18426;DHT22;9340;48.756;9.226;2023-04-15T04:20:39;2.10;99.90
18426;DHT22;9340;48.756;9.226;2023-04-15T04:23:06;2.10;99.90
18426;DHT22;9340;48.756;9.226;2023-04-15T04:25:33;2.10;99.90
18426;DHT22;9340;48.756;9.226;2023-04-15T04:28:00;2.00;99.90
18426;DHT22;9340;48.756;9.226;2023-04-15T04:30:26;2.00;99.90
18426;DHT22;9340;48.756;9.226;2023-04-15T04:32:53;2.00;99.90
18426;DHT22;9340;48.756;9.226;2023-04-15T04:35:21;1.90;99.90
18426;DHT22;9340;48.756;9.226;2023-04-15T04:37:48;1.90;99.90
18426;DHT22;9340;48.756;9.226;2023-04-15T04:40:15;1.90;99.90
18426;DHT22;9340;48.756;9.226;2023-04-15T04:42:42;1.80;99.90
18426;DHT22;9340;48.756;9.226;2023-04-15T04:45:09;1.80;99.90
18426;DHT22;9340;48.756;9.226;2023-04-15T04:47:35;1.90;99.90
18426;DHT22;9340;48.756;9.226;2023-04-15T04:50:02;1.90;99.90
18426;DHT22;9340;48.756;9.226;2023-04-15T04:52:30;2.00;99.90
18426;DHT22;9340;48.756;9.226;2023-04-15T04:54:57;2.00;99.90
18426;DHT22;9340;48.756;9.226;2023-04-15T04:57:23;2.00;99.90
18426;DHT22;9340;48.756;9.226;2023-04-15T04:59:50;1.90;99.90
18426;DHT22;9340;48.756;9.226;2023-04-15T05:02:17;2.00;99.90
18426;DHT22;9340;48.756;9.226;2023-04-15T05:04:43;1.90;99.90
18426;DHT22;9340;48.756;9.226;2023-04-15T05:07:10;1.90;99.90
18426;DHT22;9340;48.756;9.226;2023-04-15T05:09:38;2.00;99.90
18426;DHT22;9340;48.756;9.226;2023-04-15T05:12:05;2.10;99.90
18426;DHT22;9340;48.756;9.226;2023-04-15T05:14:33;2.20;99.90
18426;DHT22;9340;48.756;9.226;2023-04-15T05:17:00;2.10;99.90
18426;DHT22;9340;48.756;9.226;2023-04-15T05:19:26;2.10;99.90
18426;DHT22;9340;48.756;9.226;2023-04-15T05:21:53;2.10;99.90
18426;DHT22;9340;48.756;9.226;2023-04-15T05:24:20;2.20;99.90
18426;DHT22;9340;48.756;9.226;2023-04-15T05:26:48;2.30;99.90
18426;DHT22;9340;48.756;9.226;2023-04-15T05:29:14;2.40;99.90
18426;DHT22;9340;48.756;9.226;2023-04-15T05:31:41;2.50;99.90
18426;DHT22;9340;48.756;9.226;2023-04-15T05:34:08;2.50;99.90
18426;DHT22;9340;48.756;9.226;2023-04-15T05:36:36;2.50;99.90
18426;DHT22;9340;48.756;9.226;2023-04-15T05:39:03;2.60;99.90
18426;DHT22;9340;48.756;9.226;2023-04-15T05:41:29;2.70;99.90
18426;DHT22;9340;48.756;9.226;2023-04-15T05:43:57;2.90;99.90
18426;DHT22;9340;48.756;9.226;2023-04-15T05:46:24;3.00;99.90
18426;DHT22;9340;48.756;9.226;2023-04-15T05:48:50;3.10;99.90
18426;DHT22;9340;48.756;9.226;2023-04-15T05:51:17;3.20;99.90
18426;DHT22;9340;48.756;9.226;2023-04-15T05:53:44;3.40;99.90
18426;DHT22;9340;48.756;9.226;2023-04-15T05:56:11;3.60;99.90
18426;DHT22;9340;48.756;9.226;2023-04-15T05:58:38;3.80;99.90
18426;DHT22;9340;48.756;9.226;2023-04-15T06:01:06;4.10;99.90
18426;DHT22;9340;48.756;9.226;2023-04-15T06:03:32;4.40;99.90
18426;DHT22;9340;48.756;9.226;2023-04-15T06:05:59;4.70;99.90
18426;DHT22;9340;48.756;9.226;2023-04-15T06:08:26;4.90;99.90
18426;DHT22;9340;48.756;9.226;2023-04-15T06:10:53;5.20;99.90
18426;DHT22;9340;48.756;9.226;2023-04-15T06:13:20;5.20;99.90
18426;DHT22;9340;48.756;9.226;2023-04-15T06:15:46;5.50;99.90
18426;DHT22;9340;48.756;9.226;2023-04-15T06:18:15;5.70;99.90
18426;DHT22;9340;48.756;9.226;2023-04-15T06:20:41;5.90;99.90
18426;DHT22;9340;48.756;9.226;2023-04-15T06:23:08;6.00;99.90
18426;DHT22;9340;48.756;9.226;2023-04-15T06:25:35;6.10;99.90
18426;DHT22;9340;48.756;9.226;2023-04-15T06:28:02;6.20;99.90
18426;DHT22;9340;48.756;9.226;2023-04-15T06:30:28;6.20;99.90
18426;DHT22;9340;48.756;9.226;2023-04-15T06:32:55;6.20;99.90
18426;DHT22;9340;48.756;9.226;2023-04-15T06:35:23;6.40;99.90
18426;DHT22;9340;48.756;9.226;2023-04-15T06:37:49;6.60;99.90
18426;DHT22;9340;48.756;9.226;2023-04-15T06:40:17;6.80;99.90
18426;DHT22;9340;48.756;9.226;2023-04-15T06:42:44;6.80;99.90
18426;DHT22;9340;48.756;9.226;2023-04-15T06:45:11;6.90;99.90
18426;DHT22;9340;48.756;9.226;2023-04-15T06:47:37;7.00;99.90
18426;DHT22;9340;48.756;9.226;2023-04-15T06:50:05;7.20;99.90
18426;DHT22;9340;48.756;9.226;2023-04-15T06:52:35;7.40;99.90
18426;DHT22;9340;48.756;9.226;2023-04-15T06:55:02;7.50;99.90
18426;DHT22;9340;48.756;9.226;2023-04-15T06:57:29;7.60;99.90
18426;DHT22;9340;48.756;9.226;2023-04-15T06:59:56;7.70;99.90
18426;DHT22;9340;48.756;9.226;2023-04-15T07:02:23;7.70;99.90
18426;DHT22;9340;48.756;9.226;2023-04-15T07:04:50;7.80;99.90
18426;DHT22;9340;48.756;9.226;2023-04-15T07:07:16;8.00;99.90
18426;DHT22;9340;48.756;9.226;2023-04-15T07:09:44;8.10;99.90
18426;DHT22;9340;48.756;9.226;2023-04-15T07:12:11;8.20;99.90
18426;DHT22;9340;48.756;9.226;2023-04-15T07:14:38;8.30;99.90
18426;DHT22;9340;48.756;9.226;2023-04-15T07:17:05;8.40;99.90
18426;DHT22;9340;48.756;9.226;2023-04-15T07:19:32;8.50;99.90
18426;DHT22;9340;48.756;9.226;2023-04-15T07:21:58;8.50;99.90
18426;DHT22;9340;48.756;9.226;2023-04-15T07:24:25;8.60;99.90
18426;DHT22;9340;48.756;9.226;2023-04-15T07:26:53;8.60;99.90
18426;DHT22;9340;48.756;9.226;2023-04-15T07:29:20;8.60;99.90
18426;DHT22;9340;48.756;9.226;2023-04-15T07:31:47;8.70;99.90
18426;DHT22;9340;48.756;9.226;2023-04-15T07:34:14;8.80;99.90
18426;DHT22;9340;48.756;9.226;2023-04-15T07:36:41;8.80;99.90
18426;DHT22;9340;48.756;9.226;2023-04-15T07:39:07;8.90;99.90
18426;DHT22;9340;48.756;9.226;2023-04-15T07:41:34;8.90;99.90
18426;DHT22;9340;48.756;9.226;2023-04-15T07:44:02;8.70;99.90
18426;DHT22;9340;48.756;9.226;2023-04-15T07:46:29;8.50;99.90
18426;DHT22;9340;48.756;9.226;2023-04-15T07:48:56;8.60;99.90
18426;DHT22;9340;48.756;9.226;2023-04-15T07:51:23;8.60;99.90
18426;DHT22;9340;48.756;9.226;2023-04-15T07:53:50;8.70;99.90
18426;DHT22;9340;48.756;9.226;2023-04-15T07:56:17;8.90;99.90
18426;DHT22;9340;48.756;9.226;2023-04-15T07:58:44;9.10;99.90
18426;DHT22;9340;48.756;9.226;2023-04-15T08:01:12;9.40;99.90
18426;DHT22;9340;48.756;9.226;2023-04-15T08:03:39;9.70;99.90
18426;DHT22;9340;48.756;9.226;2023-04-15T08:06:06;10.00;99.90
18426;DHT22;9340;48.756;9.226;2023-04-15T08:08:32;10.30;99.90
18426;DHT22;9340;48.756;9.226;2023-04-15T08:10:59;10.60;99.90
18426;DHT22;9340;48.756;9.226;2023-04-15T08:13:26;10.60;99.90
18426;DHT22;9340;48.756;9.226;2023-04-15T08:16:16;10.60;99.90
18426;DHT22;9340;48.756;9.226;2023-04-15T08:18:44;10.60;99.90
18426;DHT22;9340;48.756;9.226;2023-04-15T08:21:10;10.40;99.90
18426;DHT22;9340;48.756;9.226;2023-04-15T08:23:37;10.50;99.90
18426;DHT22;9340;48.756;9.226;2023-04-15T08:26:04;10.40;99.90
18426;DHT22;9340;48.756;9.226;2023-04-15T08:28:32;10.60;99.90
18426;DHT22;9340;48.756;9.226;2023-04-15T08:30:58;11.00;99.90
18426;DHT22;9340;48.756;9.226;2023-04-15T08:33:27;11.30;99.90
18426;DHT22;9340;48.756;9.226;2023-04-15T08:35:54;11.40;99.90
18426;DHT22;9340;48.756;9.226;2023-04-15T08:38:21;11.60;99.90
18426;DHT22;9340;48.756;9.226;2023-04-15T08:40:48;11.70;99.90
18426;DHT22;9340;48.756;9.226;2023-04-15T08:43:21;11.70;99.90
18426;DHT22;9340;48.756;9.226;2023-04-15T08:45:51;11.80;99.90
18426;DHT22;9340;48.756;9.226;2023-04-15T08:48:18;12.00;99.90
18426;DHT22;9340;48.756;9.226;2023-04-15T08:50:47;12.30;99.90
18426;DHT22;9340;48.756;9.226;2023-04-15T08:53:14;12.50;99.90
18426;DHT22;9340;48.756;9.226;2023-04-15T08:55:42;12.70;99.90
18426;DHT22;9340;48.756;9.226;2023-04-15T08:58:10;13.00;99.90
18426;DHT22;9340;48.756;9.226;2023-04-15T09:00:38;13.30;99.90
18426;DHT22;9340;48.756;9.226;2023-04-15T09:03:05;13.50;99.90
18426;DHT22;9340;48.756;9.226;2023-04-15T09:05:32;13.60;99.90
18426;DHT22;9340;48.756;9.226;2023-04-15T09:08:00;13.70;99.90
18426;DHT22;9340;48.756;9.226;2023-04-15T09:10:28;13.70;99.90
18426;DHT22;9340;48.756;9.226;2023-04-15T09:12:55;13.90;99.90
18426;DHT22;9340;48.756;9.226;2023-04-15T09:15:24;14.10;99.90
18426;DHT22;9340;48.756;9.226;2023-04-15T09:17:51;14.20;99.90
18426;DHT22;9340;48.756;9.226;2023-04-15T09:20:18;14.40;99.90
18426;DHT22;9340;48.756;9.226;2023-04-15T09:22:46;14.60;99.90
18426;DHT22;9340;48.756;9.226;2023-04-15T09:25:28;14.90;99.90
18426;DHT22;9340;48.756;9.226;2023-04-15T09:27:56;15.20;99.90
18426;DHT22;9340;48.756;9.226;2023-04-15T09:30:26;15.20;99.90
18426;DHT22;9340;48.756;9.226;2023-04-15T09:32:57;15.00;99.90
18426;DHT22;9340;48.756;9.226;2023-04-15T09:35:25;15.10;99.90
18426;DHT22;9340;48.756;9.226;2023-04-15T09:38:00;15.20;99.90
18426;DHT22;9340;48.756;9.226;2023-04-15T09:40:33;15.50;99.90
18426;DHT22;9340;48.756;9.226;2023-04-15T09:43:01;16.10;99.90
18426;DHT22;9340;48.756;9.226;2023-04-15T09:45:28;16.30;99.90
18426;DHT22;9340;48.756;9.226;2023-04-15T09:47:56;16.40;99.90
18426;DHT22;9340;48.756;9.226;2023-04-15T09:50:26;16.60;99.90
18426;DHT22;9340;48.756;9.226;2023-04-15T09:52:54;16.80;99.90
18426;DHT22;9340;48.756;9.226;2023-04-15T09:55:21;16.60;99.90
18426;DHT22;9340;48.756;9.226;2023-04-15T09:57:49;16.40;99.90
18426;DHT22;9340;48.756;9.226;2023-04-15T10:00:16;16.30;99.90
18426;DHT22;9340;48.756;9.226;2023-04-15T10:02:43;16.50;99.90
18426;DHT22;9340;48.756;9.226;2023-04-15T10:05:10;16.50;99.90
18426;DHT22;9340;48.756;9.226;2023-04-15T10:07:39;16.50;99.90
18426;DHT22;9340;48.756;9.226;2023-04-15T10:10:07;16.70;99.90
18426;DHT22;9340;48.756;9.226;2023-04-15T10:12:36;16.70;99.90
18426;DHT22;9340;48.756;9.226;2023-04-15T10:15:05;16.70;99.90
18426;DHT22;9340;48.756;9.226;2023-04-15T10:17:36;16.60;99.90
18426;DHT22;9340;48.756;9.226;2023-04-15T10:20:04;16.60;99.90
18426;DHT22;9340;48.756;9.226;2023-04-15T10:22:32;16.40;99.90
18426;DHT22;9340;48.756;9.226;2023-04-15T10:24:58;16.40;99.90
18426;DHT22;9340;48.756;9.226;2023-04-15T10:27:26;16.30;99.90
18426;DHT22;9340;48.756;9.226;2023-04-15T10:29:53;16.10;99.90
18426;DHT22;9340;48.756;9.226;2023-04-15T10:32:23;16.00;99.90
18426;DHT22;9340;48.756;9.226;2023-04-15T10:34:51;16.10;99.90
18426;DHT22;9340;48.756;9.226;2023-04-15T10:37:31;16.40;99.90
18426;DHT22;9340;48.756;9.226;2023-04-15T10:39:59;16.40;99.90
18426;DHT22;9340;48.756;9.226;2023-04-15T10:42:33;16.20;99.90
18426;DHT22;9340;48.756;9.226;2023-04-15T10:45:00;16.60;99.90
18426;DHT22;9340;48.756;9.226;2023-04-15T10:47:28;16.90;99.90
18426;DHT22;9340;48.756;9.226;2023-04-15T10:49:58;16.90;99.90
18426;DHT22;9340;48.756;9.226;2023-04-15T10:52:26;16.70;99.90
18426;DHT22;9340;48.756;9.226;2023-04-15T10:55:01;16.50;99.90
18426;DHT22;9340;48.756;9.226;2023-04-15T10:57:33;16.30;99.90
18426;DHT22;9340;48.756;9.226;2023-04-15T11:00:12;16.30;99.90
18426;DHT22;9340;48.756;9.226;2023-04-15T11:02:45;16.10;99.90
18426;DHT22;9340;48.756;9.226;2023-04-15T11:05:13;16.50;99.90
18426;DHT22;9340;48.756;9.226;2023-04-15T11:07:47;16.80;99.90
18426;DHT22;9340;48.756;9.226;2023-04-15T11:13:26;16.90;99.90
18426;DHT22;9340;48.756;9.226;2023-04-15T11:15:59;16.60;99.90
18426;DHT22;9340;48.756;9.226;2023-04-15T11:18:29;16.50;99.90
18426;DHT22;9340;48.756;9.226;2023-04-15T11:20:58;16.60;99.90
18426;DHT22;9340;48.756;9.226;2023-04-15T11:23:33;16.50;99.90
18426;DHT22;9340;48.756;9.226;2023-04-15T11:26:02;17.00;99.90
18426;DHT22;9340;48.756;9.226;2023-04-15T11:28:30;17.40;99.90
18426;DHT22;9340;48.756;9.226;2023-04-15T11:30:59;17.60;99.90
18426;DHT22;9340;48.756;9.226;2023-04-15T11:33:32;17.80;99.90
18426;DHT22;9340;48.756;9.226;2023-04-15T11:35:59;18.10;99.90
18426;DHT22;9340;48.756;9.226;2023-04-15T11:38:26;18.10;99.90
18426;DHT22;9340;48.756;9.226;2023-04-15T11:40:54;18.10;99.90
18426;DHT22;9340;48.756;9.226;2023-04-15T11:43:22;18.40;99.90
18426;DHT22;9340;48.756;9.226;2023-04-15T11:45:51;18.60;99.90
18426;DHT22;9340;48.756;9.226;2023-04-15T11:48:19;18.70;99.90
18426;DHT22;9340;48.756;9.226;2023-04-15T11:50:52;18.60;99.90
18426;DHT22;9340;48.756;9.226;2023-04-15T11:53:19;17.60;99.90
18426;DHT22;9340;48.756;9.226;2023-04-15T11:55:47;16.80;99.90
18426;DHT22;9340;48.756;9.226;2023-04-15T11:58:16;16.70;99.90
18426;DHT22;9340;48.756;9.226;2023-04-15T12:00:47;16.60;99.90
18426;DHT22;9340;48.756;9.226;2023-04-15T12:03:17;16.40;99.90
18426;DHT22;9340;48.756;9.226;2023-04-15T12:06:19;16.20;99.90
18426;DHT22;9340;48.756;9.226;2023-04-15T12:08:48;16.00;99.90
18426;DHT22;9340;48.756;9.226;2023-04-15T12:11:14;16.40;99.90
18426;DHT22;9340;48.756;9.226;2023-04-15T12:13:42;17.00;99.90
18426;DHT22;9340;48.756;9.226;2023-04-15T12:16:09;17.40;99.90
18426;DHT22;9340;48.756;9.226;2023-04-15T12:18:36;17.70;99.90
18426;DHT22;9340;48.756;9.226;2023-04-15T12:21:08;17.90;99.90
18426;DHT22;9340;48.756;9.226;2023-04-15T12:23:37;17.90;99.90
18426;DHT22;9340;48.756;9.226;2023-04-15T12:26:04;17.60;99.90
18426;DHT22;9340;48.756;9.226;2023-04-15T12:28:33;17.00;99.90
18426;DHT22;9340;48.756;9.226;2023-04-15T12:31:05;16.60;99.90
18426;DHT22;9340;48.756;9.226;2023-04-15T12:33:32;16.20;99.90
18426;DHT22;9340;48.756;9.226;2023-04-15T12:35:59;15.80;99.90
18426;DHT22;9340;48.756;9.226;2023-04-15T12:38:25;15.30;99.90
18426;DHT22;9340;48.756;9.226;2023-04-15T12:40:54;14.50;99.90
18426;DHT22;9340;48.756;9.226;2023-04-15T12:43:20;13.60;99.90
18426;DHT22;9340;48.756;9.226;2023-04-15T12:45:47;12.30;99.90
18426;DHT22;9340;48.756;9.226;2023-04-15T12:48:14;11.70;99.90
18426;DHT22;9340;48.756;9.226;2023-04-15T12:50:40;11.00;99.90
18426;DHT22;9340;48.756;9.226;2023-04-15T12:53:07;10.70;99.90
18426;DHT22;9340;48.756;9.226;2023-04-15T12:55:34;10.80;99.90
18426;DHT22;9340;48.756;9.226;2023-04-15T12:58:02;10.70;99.90
18426;DHT22;9340;48.756;9.226;2023-04-15T13:00:29;10.90;99.90
18426;DHT22;9340;48.756;9.226;2023-04-15T13:02:56;11.10;99.90
18426;DHT22;9340;48.756;9.226;2023-04-15T13:05:23;11.40;99.90
18426;DHT22;9340;48.756;9.226;2023-04-15T13:07:50;11.50;99.90
18426;DHT22;9340;48.756;9.226;2023-04-15T13:10:16;11.50;99.90
18426;DHT22;9340;48.756;9.226;2023-04-15T13:12:43;11.60;99.90
18426;DHT22;9340;48.756;9.226;2023-04-15T13:15:12;11.80;99.90
18426;DHT22;9340;48.756;9.226;2023-04-15T13:17:39;12.30;99.90
18426;DHT22;9340;48.756;9.226;2023-04-15T13:20:06;12.80;99.90
18426;DHT22;9340;48.756;9.226;2023-04-15T13:22:33;13.20;99.90
18426;DHT22;9340;48.756;9.226;2023-04-15T13:24:59;13.50;99.90
18426;DHT22;9340;48.756;9.226;2023-04-15T13:27:26;13.70;99.90
18426;DHT22;9340;48.756;9.226;2023-04-15T13:29:53;13.80;99.90
18426;DHT22;9340;48.756;9.226;2023-04-15T13:32:21;13.80;99.90
18426;DHT22;9340;48.756;9.226;2023-04-15T13:34:48;14.10;99.90
18426;DHT22;9340;48.756;9.226;2023-04-15T13:37:14;14.40;99.90
18426;DHT22;9340;48.756;9.226;2023-04-15T13:39:41;14.70;99.90
18426;DHT22;9340;48.756;9.226;2023-04-15T13:42:08;14.90;99.90
18426;DHT22;9340;48.756;9.226;2023-04-15T13:44:35;14.90;99.90
18426;DHT22;9340;48.756;9.226;2023-04-15T13:47:01;15.10;99.90
18426;DHT22;9340;48.756;9.226;2023-04-15T13:49:29;15.20;99.90
18426;DHT22;9340;48.756;9.226;2023-04-15T13:51:56;15.30;99.90
18426;DHT22;9340;48.756;9.226;2023-04-15T13:54:23;15.30;99.90
18426;DHT22;9340;48.756;9.226;2023-04-15T13:56:49;15.20;99.90
18426;DHT22;9340;48.756;9.226;2023-04-15T13:59:16;15.20;99.90
18426;DHT22;9340;48.756;9.226;2023-04-15T14:01:43;15.20;99.90
18426;DHT22;9340;48.756;9.226;2023-04-15T14:04:09;14.80;99.90
18426;DHT22;9340;48.756;9.226;2023-04-15T14:06:37;14.40;99.90
18426;DHT22;9340;48.756;9.226;2023-04-15T14:09:04;14.00;99.90
18426;DHT22;9340;48.756;9.226;2023-04-15T14:11:31;13.80;99.90
18426;DHT22;9340;48.756;9.226;2023-04-15T14:13:59;13.70;99.90
18426;DHT22;9340;48.756;9.226;2023-04-15T14:16:26;13.80;99.90
18426;DHT22;9340;48.756;9.226;2023-04-15T14:18:53;13.60;99.90
18426;DHT22;9340;48.756;9.226;2023-04-15T14:21:20;13.40;99.90
18426;DHT22;9340;48.756;9.226;2023-04-15T14:23:48;13.50;99.90
18426;DHT22;9340;48.756;9.226;2023-04-15T14:26:15;13.60;99.90
18426;DHT22;9340;48.756;9.226;2023-04-15T14:28:41;13.70;99.90
18426;DHT22;9340;48.756;9.226;2023-04-15T14:31:09;13.90;99.90
18426;DHT22;9340;48.756;9.226;2023-04-15T14:33:36;13.90;99.90
18426;DHT22;9340;48.756;9.226;2023-04-15T14:36:03;13.80;99.90
18426;DHT22;9340;48.756;9.226;2023-04-15T14:38:30;13.70;99.90
18426;DHT22;9340;48.756;9.226;2023-04-15T14:40:59;13.60;99.90
18426;DHT22;9340;48.756;9.226;2023-04-15T14:43:26;13.60;99.90
18426;DHT22;9340;48.756;9.226;2023-04-15T14:45:53;13.40;99.90
18426;DHT22;9340;48.756;9.226;2023-04-15T14:48:20;13.10;99.90
18426;DHT22;9340;48.756;9.226;2023-04-15T14:50:47;13.00;99.90
18426;DHT22;9340;48.756;9.226;2023-04-15T14:53:14;12.80;99.90
18426;DHT22;9340;48.756;9.226;2023-04-15T14:55:40;12.80;99.90
18426;DHT22;9340;48.756;9.226;2023-04-15T14:58:09;12.80;99.90
18426;DHT22;9340;48.756;9.226;2023-04-15T15:00:38;12.80;99.90
18426;DHT22;9340;48.756;9.226;2023-04-15T15:03:07;12.70;99.90
18426;DHT22;9340;48.756;9.226;2023-04-15T15:05:37;12.60;99.90
18426;DHT22;9340;48.756;9.226;2023-04-15T15:08:05;12.50;99.90
18426;DHT22;9340;48.756;9.226;2023-04-15T15:10:31;12.50;99.90
18426;DHT22;9340;48.756;9.226;2023-04-15T15:12:58;12.60;99.90
18426;DHT22;9340;48.756;9.226;2023-04-15T15:15:26;12.50;99.90
18426;DHT22;9340;48.756;9.226;2023-04-15T15:17:53;12.40;99.90
18426;DHT22;9340;48.756;9.226;2023-04-15T15:20:20;12.30;99.90
18426;DHT22;9340;48.756;9.226;2023-04-15T15:22:47;12.30;99.90
18426;DHT22;9340;48.756;9.226;2023-04-15T15:25:14;12.30;99.90
18426;DHT22;9340;48.756;9.226;2023-04-15T15:27:41;12.10;99.90
18426;DHT22;9340;48.756;9.226;2023-04-15T15:30:08;11.80;99.90
18426;DHT22;9340;48.756;9.226;2023-04-15T15:32:39;11.60;99.90
18426;DHT22;9340;48.756;9.226;2023-04-15T15:35:06;11.60;99.90
18426;DHT22;9340;48.756;9.226;2023-04-15T15:37:34;11.50;99.90
18426;DHT22;9340;48.756;9.226;2023-04-15T15:40:01;11.50;99.90
18426;DHT22;9340;48.756;9.226;2023-04-15T15:42:30;11.50;99.90
18426;DHT22;9340;48.756;9.226;2023-04-15T15:44:57;11.50;99.90
18426;DHT22;9340;48.756;9.226;2023-04-15T15:47:24;11.50;99.90
18426;DHT22;9340;48.756;9.226;2023-04-15T15:49:53;11.50;99.90
18426;DHT22;9340;48.756;9.226;2023-04-15T15:52:20;11.60;99.90
18426;DHT22;9340;48.756;9.226;2023-04-15T15:54:47;11.70;99.90
18426;DHT22;9340;48.756;9.226;2023-04-15T15:57:14;11.70;99.90
18426;DHT22;9340;48.756;9.226;2023-04-15T15:59:40;11.70;99.90